createdAt,value
2022-08-27T00:02:30.571Z,99879.79
2022-08-27T00:05:02.224Z,99882.88
2022-08-27T00:07:33.133Z,99882.27
2022-08-27T00:10:07.617Z,99880.35
2022-08-27T00:12:39.318Z,99881.27
2022-08-27T00:15:12.462Z,99878.09
2022-08-27T00:17:49.427Z,99883.27
2022-08-27T00:20:22.981Z,99882.98
2022-08-27T00:22:54.485Z,99884.91
2022-08-27T00:25:25.356Z,99882.67
2022-08-27T00:27:56.484Z,99884.61
2022-08-27T00:30:27.742Z,99882.01
2022-08-27T00:32:58.488Z,99883.59
2022-08-27T00:35:29.397Z,99884.95
2022-08-27T00:38:00.944Z,99889.11
2022-08-27T00:40:31.819Z,99890.80
2022-08-27T00:43:03.570Z,99895.64
2022-08-27T00:45:39.241Z,99891.23
2022-08-27T00:48:13.698Z,99894.92
2022-08-27T00:50:48.932Z,99885.64
2022-08-27T00:53:23.570Z,99891.08
2022-08-27T00:55:56.989Z,99891.08
2022-08-27T00:58:30.909Z,99889.64
2022-08-27T01:01:03.436Z,99889.10
2022-08-27T01:03:34.622Z,99892.89
2022-08-27T01:06:11.418Z,99889.98
2022-08-27T01:08:52.292Z,99885.27
2022-08-27T01:11:25.240Z,99882.20
2022-08-27T01:13:59.971Z,99879.39
2022-08-27T01:16:37.525Z,99881.41
2022-08-27T01:19:14.257Z,99880.52
2022-08-27T01:21:51.956Z,99882.17
2022-08-27T01:24:34.004Z,99879.73
2022-08-27T01:27:13.439Z,99882.93
2022-08-27T01:29:45.536Z,99885.02
2022-08-27T01:32:19.794Z,99887.52
2022-08-27T01:34:51.841Z,99888.52
2022-08-27T01:37:24.371Z,99886.92
2022-08-27T01:39:59.450Z,99893.61
2022-08-27T01:42:33.838Z,99897.07
2022-08-27T01:45:08.410Z,99894.20
2022-08-27T01:47:40.701Z,99891.95
2022-08-27T01:50:14.838Z,99891.30
2022-08-27T01:52:46.250Z,99887.87
2022-08-27T01:55:19.251Z,99886.14
2022-08-27T01:57:50.186Z,99884.27
2022-08-27T02:00:25.350Z,99877.83
2022-08-27T02:02:56.344Z,99877.38
2022-08-27T02:05:28.840Z,99872.33
2022-08-27T02:08:00.401Z,99870.90
2022-08-27T02:10:34.138Z,99871.16
2022-08-27T02:13:07.096Z,99870.86
2022-08-27T02:15:38.786Z,99868.91
2022-08-27T02:18:10.933Z,99866.19
2022-08-27T02:20:42.389Z,99866.27
2022-08-27T02:23:13.738Z,99862.02
2022-08-27T02:25:47.304Z,99863.22
2022-08-27T02:28:18.040Z,99861.60
2022-08-27T02:30:48.782Z,99859.94
2022-08-27T02:33:19.525Z,99854.08
2022-08-27T02:35:50.356Z,99856.41
2022-08-27T02:38:21.425Z,99854.56
2022-08-27T02:40:54.884Z,99856.56
2022-08-27T02:43:25.738Z,99856.71
2022-08-27T02:45:59.063Z,99854.64
2022-08-27T02:48:29.866Z,99850.01
2022-08-27T02:51:00.560Z,99849.36
2022-08-27T02:53:31.536Z,99850.67
2022-08-27T02:56:02.483Z,99851.36
2022-08-27T02:58:34.333Z,99848.00
2022-08-27T03:01:06.473Z,99843.83
2022-08-27T03:03:44.881Z,99844.41
2022-08-27T03:06:15.662Z,99839.54
2022-08-27T03:08:51.953Z,99840.14
2022-08-27T03:11:24.413Z,99840.70
2022-08-27T03:13:55.507Z,99844.39
2022-08-27T03:16:26.596Z,99847.70
2022-08-27T03:18:57.774Z,99847.48
2022-08-27T03:21:29.027Z,99852.34
2022-08-27T03:24:11.290Z,99855.65
2022-08-27T03:26:43.034Z,99853.42
2022-08-27T03:29:23.755Z,99857.75
2022-08-27T03:31:54.574Z,99855.52
2022-08-27T03:34:25.301Z,99856.77
2022-08-27T03:36:56.056Z,99860.20
2022-08-27T03:39:26.891Z,99861.11
2022-08-27T03:41:57.796Z,99862.67
2022-08-27T03:44:28.963Z,99864.97
2022-08-27T03:47:01.011Z,99870.95
2022-08-27T03:49:31.721Z,99874.05
2022-08-27T03:52:04.814Z,99877.41
2022-08-27T03:54:36.966Z,99877.98
2022-08-27T03:57:08.647Z,99878.80
2022-08-27T03:59:39.366Z,99875.41
2022-08-27T04:02:10.173Z,99876.46
2022-08-27T04:04:41.018Z,99877.98
2022-08-27T04:07:11.896Z,99875.20
2022-08-27T04:09:42.690Z,99877.10
2022-08-27T04:12:13.564Z,99877.70
2022-08-27T04:14:44.281Z,99875.17
2022-08-27T04:17:15.093Z,99878.48
2022-08-27T04:19:45.792Z,99876.55
2022-08-27T04:22:16.946Z,99875.45
2022-08-27T04:24:50.588Z,99877.69
2022-08-27T04:27:21.658Z,99873.73
2022-08-27T04:29:54.977Z,99876.83
2022-08-27T04:32:27.404Z,99879.14
2022-08-27T04:35:01.522Z,99880.84
2022-08-27T04:37:34.654Z,99878.11
2022-08-27T04:40:07.154Z,99877.95
2022-08-27T04:42:38.176Z,99883.16
2022-08-27T04:45:11.021Z,99883.40
2022-08-27T04:47:41.848Z,99882.74
2022-08-27T04:50:13.102Z,99881.55
2022-08-27T04:52:45.697Z,99880.24
2022-08-27T04:55:19.026Z,99880.70
2022-08-27T04:57:49.749Z,99883.14
2022-08-27T05:00:21.385Z,99882.05
2022-08-27T05:02:52.078Z,99880.17
2022-08-27T05:05:23.714Z,99873.92
2022-08-27T05:07:54.511Z,99869.82
2022-08-27T05:10:25.215Z,99868.05
2022-08-27T05:12:59.865Z,99868.53
2022-08-27T05:15:31.365Z,99870.47
2022-08-27T05:18:02.394Z,99871.35
2022-08-27T05:20:33.981Z,99864.27
2022-08-27T05:23:04.881Z,99868.80
2022-08-27T05:25:41.609Z,99872.92
2022-08-27T05:28:13.408Z,99868.80
2022-08-27T05:30:49.335Z,99872.16
2022-08-27T05:33:27.686Z,99872.40
2022-08-27T05:36:00.879Z,99869.91
2022-08-27T05:38:32.919Z,99865.89
2022-08-27T05:41:09.034Z,99867.07
2022-08-27T05:43:41.450Z,99863.67
2022-08-27T05:46:14.761Z,99865.70
2022-08-27T05:48:46.206Z,99866.42
2022-08-27T05:51:25.808Z,99867.98
2022-08-27T05:54:04.539Z,99867.11
2022-08-27T05:56:39.378Z,99868.15
2022-08-27T05:59:27.662Z,99871.19
2022-08-27T06:01:59.025Z,99871.75
2022-08-27T06:04:30.294Z,99876.89
2022-08-27T06:07:01.035Z,99883.77
2022-08-27T06:09:32.290Z,99882.50
2022-08-27T06:12:03.990Z,99886.12
2022-08-27T06:14:36.418Z,99885.79
2022-08-27T06:17:07.806Z,99893.00
2022-08-27T06:19:38.643Z,99891.57
2022-08-27T06:22:10.008Z,99895.52
2022-08-27T06:24:43.452Z,99894.49
2022-08-27T06:27:17.440Z,99891.95
2022-08-27T06:29:49.087Z,99896.09
2022-08-27T06:32:20.163Z,99896.41
2022-08-27T06:34:52.891Z,99893.83
2022-08-27T06:37:23.692Z,99899.60
2022-08-27T06:39:54.558Z,99900.63
2022-08-27T06:42:25.436Z,99903.83
2022-08-27T06:44:57.038Z,99896.98
2022-08-27T06:47:27.858Z,99905.27
2022-08-27T06:49:58.873Z,99903.89
2022-08-27T06:52:29.671Z,99901.96
2022-08-27T06:55:00.460Z,99902.56
2022-08-27T06:57:31.382Z,99905.35
2022-08-27T07:00:02.560Z,99905.35
2022-08-27T07:02:33.936Z,99907.70
2022-08-27T07:05:04.908Z,99911.17
2022-08-27T07:07:40.669Z,99913.73
2022-08-27T07:10:15.886Z,99916.98
2022-08-27T07:12:46.797Z,99919.83
2022-08-27T07:15:18.186Z,99920.95
2022-08-27T07:17:52.859Z,99920.98
2022-08-27T07:20:25.426Z,99920.58
2022-08-27T07:22:58.887Z,99920.19
2022-08-27T07:25:32.205Z,99920.96
2022-08-27T07:28:03.014Z,99918.93
2022-08-27T07:30:34.114Z,99918.05
2022-08-27T07:33:05.273Z,99914.79
2022-08-27T07:35:36.034Z,99912.71
2022-08-27T07:38:07.074Z,99911.52
2022-08-27T07:40:38.235Z,99915.18
2022-08-27T07:43:29.679Z,99919.23
2022-08-27T07:46:05.631Z,99923.20
2022-08-27T07:48:37.906Z,99928.42
2022-08-27T07:51:17.358Z,99932.29
2022-08-27T07:53:48.356Z,99936.33
2022-08-27T07:56:20.006Z,99940.06
2022-08-27T07:58:50.998Z,99941.42
2022-08-27T08:01:24.099Z,99945.89
2022-08-27T08:03:54.921Z,99943.86
2022-08-27T08:06:25.702Z,99951.62
2022-08-27T08:08:56.469Z,99951.41
2022-08-27T08:11:27.197Z,99955.45
2022-08-27T08:13:58.041Z,99954.27
2022-08-27T08:16:31.827Z,99951.18
2022-08-27T08:19:02.827Z,99953.10
2022-08-27T08:21:33.733Z,99954.27
2022-08-27T08:24:04.925Z,99954.48
2022-08-27T08:26:35.997Z,99953.42
2022-08-27T08:29:06.914Z,99951.60
2022-08-27T08:31:37.722Z,99951.81
2022-08-27T08:34:08.556Z,99953.77
2022-08-27T08:36:43.135Z,99956.32
2022-08-27T08:39:19.354Z,99954.98
2022-08-27T08:41:55.182Z,99957.83
2022-08-27T08:44:33.892Z,99959.95
2022-08-27T08:47:12.192Z,99961.20
2022-08-27T08:49:50.765Z,99963.94
2022-08-27T08:52:32.228Z,99964.76
2022-08-27T08:55:14.106Z,99966.91
2022-08-27T08:57:50.717Z,99961.60
2022-08-27T09:00:21.482Z,99971.55
2022-08-27T09:02:56.022Z,99969.89
2022-08-27T09:05:27.961Z,99972.06
2022-08-27T09:08:31.942Z,99973.09
2022-08-27T09:11:07.315Z,99972.11
2022-08-27T09:13:42.205Z,99975.75
2022-08-27T09:16:13.220Z,99976.95
2022-08-27T09:18:51.313Z,99981.09
2022-08-27T09:21:32.417Z,99983.20
2022-08-27T09:24:09.610Z,99984.60
2022-08-27T09:26:44.702Z,99985.08
2022-08-27T09:29:18.993Z,99984.63
2022-08-27T09:31:54.840Z,99988.81
2022-08-27T09:34:27.350Z,99990.63
2022-08-27T09:37:07.554Z,99994.05
2022-08-27T09:39:53.459Z,99995.35
2022-08-27T09:42:35.788Z,99996.19
2022-08-27T09:45:11.806Z,99996.97
2022-08-27T09:47:48.468Z,99994.70
2022-08-27T09:50:22.630Z,99991.69
2022-08-27T09:52:56.110Z,99991.08
2022-08-27T09:55:38.262Z,99990.71
2022-08-27T09:58:21.354Z,99990.64
2022-08-27T10:01:02.832Z,99992.48
2022-08-27T10:03:34.883Z,99994.70
2022-08-27T10:06:06.181Z,99996.25
2022-08-27T10:08:42.881Z,99996.91
2022-08-27T10:11:20.104Z,100001.64
2022-08-27T10:13:58.781Z,99999.27
2022-08-27T10:16:48.435Z,99999.77
2022-08-27T10:19:35.534Z,99997.20
2022-08-27T10:22:12.903Z,99994.91
2022-08-27T10:25:02.145Z,99991.89
2022-08-27T10:27:42.004Z,99995.77
2022-08-27T10:30:15.945Z,99991.84
2022-08-27T10:33:03.734Z,99987.55
2022-08-27T10:35:48.021Z,99994.36
2022-08-27T10:38:27.685Z,99989.10
2022-08-27T10:41:03.496Z,99991.30
2022-08-27T10:43:59.169Z,99993.14
2022-08-27T10:46:50.190Z,99992.97
2022-08-27T10:49:28.240Z,99988.55
2022-08-27T10:52:08.549Z,99991.33
2022-08-27T10:54:44.552Z,99992.56
2022-08-27T10:57:39.898Z,99996.17
2022-08-27T11:00:18.740Z,99996.13
2022-08-27T11:02:55.186Z,99999.36
2022-08-27T11:05:32.212Z,99996.14
2022-08-27T11:08:08.761Z,99997.45
2022-08-27T11:10:44.713Z,99997.65
2022-08-27T11:13:23.226Z,99994.31
2022-08-27T11:15:57.156Z,99996.02
2022-08-27T11:18:41.636Z,99998.02
2022-08-27T11:21:21.274Z,99996.38
2022-08-27T11:23:59.430Z,99997.20
2022-08-27T11:26:33.113Z,100000.04
2022-08-27T11:29:08.268Z,100003.00
2022-08-27T11:31:47.357Z,100000.22
2022-08-27T11:34:25.987Z,99999.79
2022-08-27T11:37:10.220Z,100003.03
2022-08-27T11:39:56.105Z,100002.67
2022-08-27T11:42:36.532Z,100004.91
2022-08-27T11:45:16.788Z,100005.28
2022-08-27T11:47:58.168Z,100002.89
2022-08-27T11:50:30.928Z,100003.75
2022-08-27T11:53:05.906Z,100006.89
2022-08-27T11:55:39.053Z,100002.29
2022-08-27T11:58:24.244Z,99998.86
2022-08-27T12:00:57.002Z,99999.86
2022-08-27T12:03:33.428Z,99997.55
2022-08-27T12:06:21.049Z,100000.14
2022-08-27T12:08:52.680Z,99998.89
2022-08-27T12:11:39.401Z,99995.93
2022-08-27T12:14:22.032Z,99991.58
2022-08-27T12:16:59.567Z,99995.47
2022-08-27T12:19:57.631Z,99988.16
2022-08-27T12:23:04.835Z,99985.32
2022-08-27T12:25:35.617Z,99981.36
2022-08-27T12:28:09.884Z,99984.04
2022-08-27T12:30:49.965Z,99988.16
2022-08-27T12:33:28.263Z,99984.77
2022-08-27T12:36:07.338Z,99983.71
2022-08-27T12:38:50.825Z,99984.46
2022-08-27T12:41:32.077Z,99984.17
2022-08-27T12:44:08.470Z,99987.58
2022-08-27T12:46:49.752Z,99986.56
2022-08-27T12:49:38.165Z,99987.86
2022-08-27T12:52:15.717Z,99986.27
2022-08-27T12:55:06.971Z,99982.25
2022-08-27T12:57:47.878Z,99979.95
2022-08-27T13:00:25.507Z,99978.98
2022-08-27T13:03:21.216Z,99978.69
2022-08-27T13:05:56.879Z,99981.41
2022-08-27T13:08:31.482Z,99979.59
2022-08-27T13:11:17.941Z,99981.42
2022-08-27T13:13:49.207Z,99978.13
2022-08-27T13:16:21.810Z,99981.52
2022-08-27T13:18:53.530Z,99980.52
2022-08-27T13:21:27.563Z,99980.01
2022-08-27T13:24:01.168Z,99981.83
2022-08-27T13:26:37.029Z,99978.11
2022-08-27T13:29:10.619Z,99978.41
2022-08-27T13:31:42.109Z,99976.75
2022-08-27T13:34:19.622Z,99980.39
2022-08-27T13:37:02.476Z,99972.12
2022-08-27T13:39:34.415Z,99977.80
2022-08-27T13:42:05.039Z,99976.98
2022-08-27T13:44:40.498Z,99975.92
2022-08-27T13:47:17.786Z,99976.02
2022-08-27T13:49:49.067Z,99971.05
2022-08-27T13:52:28.763Z,99972.61
2022-08-27T13:55:06.561Z,99969.27
2022-08-27T13:57:46.064Z,99978.39
2022-08-27T14:00:26.563Z,99975.19
2022-08-27T14:02:59.000Z,99971.63
2022-08-27T14:05:37.059Z,99975.69
2022-08-27T14:08:13.857Z,99969.84
2022-08-27T14:10:50.721Z,99970.83
2022-08-27T14:13:25.890Z,99969.21
2022-08-27T14:15:58.916Z,99972.08
2022-08-27T14:18:55.416Z,99973.09
2022-08-27T14:21:24.095Z,99975.59
2022-08-27T14:23:55.149Z,99978.56
2022-08-27T14:26:27.828Z,99983.89
2022-08-27T14:28:58.963Z,99983.34
2022-08-27T14:31:31.290Z,99981.66
2022-08-27T14:34:02.694Z,99986.98
2022-08-27T14:36:37.259Z,99985.12
2022-08-27T14:39:09.156Z,99988.48
2022-08-27T14:41:40.394Z,99988.83
2022-08-27T14:44:11.447Z,99992.16
2022-08-27T14:46:44.542Z,99991.27
2022-08-27T14:49:19.846Z,99993.84
2022-08-27T14:51:51.194Z,99989.05
2022-08-27T14:54:24.081Z,99993.45
2022-08-27T14:57:04.923Z,99992.23
2022-08-27T14:59:36.421Z,99990.81
2022-08-27T15:02:11.095Z,99988.29
2022-08-27T15:04:44.273Z,99990.08
2022-08-27T15:07:19.814Z,99991.55
2022-08-27T15:09:55.412Z,99992.07
2022-08-27T15:12:26.862Z,99993.16
2022-08-27T15:14:57.819Z,99996.96
2022-08-27T15:17:35.066Z,99993.50
2022-08-27T15:20:10.217Z,99992.20
2022-08-27T15:22:52.204Z,99992.70
2022-08-27T15:25:23.755Z,99994.73
2022-08-27T15:27:54.669Z,99991.09
2022-08-27T15:30:29.685Z,99988.69
2022-08-27T15:33:00.401Z,99984.77
2022-08-27T15:35:31.185Z,99986.63
2022-08-27T15:38:02.927Z,99989.54
2022-08-27T15:40:36.498Z,99979.09
2022-08-27T15:43:09.397Z,99984.05
2022-08-27T15:45:40.126Z,99981.27
2022-08-27T15:48:12.255Z,99984.60
2022-08-27T15:50:44.608Z,99983.10
2022-08-27T15:53:15.773Z,99984.23
2022-08-27T15:55:46.869Z,99984.00
2022-08-27T15:58:17.964Z,99980.97
2022-08-27T16:00:48.649Z,99980.53
2022-08-27T16:03:35.550Z,99985.65
2022-08-27T16:06:08.848Z,99984.19
2022-08-27T16:08:41.963Z,99979.77
2022-08-27T16:11:14.003Z,99977.91
2022-08-27T16:13:44.894Z,99979.15
2022-08-27T16:16:16.417Z,99970.08
2022-08-27T16:18:47.599Z,99975.44
2022-08-27T16:21:18.266Z,99974.79
2022-08-27T16:23:49.440Z,99968.74
2022-08-27T16:26:20.290Z,99964.36
2022-08-27T16:28:50.963Z,99965.42
2022-08-27T16:31:22.049Z,99962.02
2022-08-27T16:33:52.900Z,99963.77
2022-08-27T16:36:23.699Z,99964.34
2022-08-27T16:38:55.413Z,99962.21
2022-08-27T16:41:26.301Z,99965.17
2022-08-27T16:43:57.811Z,99963.28
2022-08-27T16:46:28.585Z,99963.12
2022-08-27T16:49:17.544Z,99963.40
2022-08-27T16:51:48.473Z,99965.23
2022-08-27T16:54:19.578Z,99968.36
2022-08-27T16:56:50.270Z,99976.13
2022-08-27T16:59:20.988Z,99971.52
2022-08-27T17:01:54.286Z,99968.61
2022-08-27T17:04:31.203Z,99973.70
2022-08-27T17:07:07.746Z,99976.65
2022-08-27T17:09:40.627Z,99980.95
2022-08-27T17:12:13.959Z,99984.94
2022-08-27T17:14:45.605Z,99987.31
2022-08-27T17:17:17.271Z,99992.09
2022-08-27T17:19:48.355Z,99995.92
2022-08-27T17:22:19.140Z,99996.63
2022-08-27T17:24:49.791Z,99997.70
2022-08-27T17:27:20.537Z,99999.23
2022-08-27T17:29:51.323Z,100002.46
2022-08-27T17:32:22.222Z,100008.20
2022-08-27T17:34:52.955Z,100009.17
2022-08-27T17:37:23.708Z,100012.70
2022-08-27T17:39:54.655Z,100013.70
2022-08-27T17:42:26.783Z,100018.63
2022-08-27T17:44:58.111Z,100019.14
2022-08-27T17:47:29.979Z,100018.20
2022-08-27T17:50:00.626Z,100020.43
2022-08-27T17:52:33.573Z,100019.67
2022-08-27T17:55:05.025Z,100022.44
2022-08-27T17:57:41.145Z,100027.71
2022-08-27T18:00:15.197Z,100036.52
2022-08-27T18:02:48.410Z,100038.86
2022-08-27T18:05:24.151Z,100039.98
2022-08-27T18:07:57.057Z,100036.55
2022-08-27T18:10:29.157Z,100037.58
2022-08-27T18:12:58.245Z,100039.84
2022-08-27T18:15:31.111Z,100041.16
2022-08-27T18:18:02.530Z,100043.23
2022-08-27T18:20:36.074Z,100047.23
2022-08-27T18:23:07.279Z,100053.59
2022-08-27T18:25:39.862Z,100052.80
2022-08-27T18:28:14.144Z,100056.33
2022-08-27T18:30:47.267Z,100057.64
2022-08-27T18:33:18.200Z,100059.21
2022-08-27T18:35:48.925Z,100059.48
2022-08-27T18:38:22.715Z,100061.86
2022-08-27T18:40:54.519Z,100063.80
2022-08-27T18:43:29.626Z,100066.16
2022-08-27T18:46:00.539Z,100067.85
2022-08-27T18:48:31.375Z,100068.30
2022-08-27T18:51:05.014Z,100071.23
2022-08-27T18:53:39.833Z,100071.98
2022-08-27T18:56:16.615Z,100076.83
2022-08-27T18:58:48.867Z,100077.30
2022-08-27T19:01:24.663Z,100078.12
2022-08-27T19:03:58.226Z,100078.29
2022-08-27T19:06:28.963Z,100075.39
2022-08-27T19:09:00.752Z,100076.17
2022-08-27T19:11:32.779Z,100071.98
2022-08-27T19:14:03.462Z,100074.17
2022-08-27T19:16:43.297Z,100080.81
2022-08-27T19:19:16.139Z,100088.08
2022-08-27T19:21:51.199Z,100091.74
2022-08-27T19:24:25.789Z,100095.27
2022-08-27T19:26:56.817Z,100094.88
2022-08-27T19:29:28.631Z,100097.20
2022-08-27T19:31:59.547Z,100100.95
2022-08-27T19:34:30.659Z,100098.23
2022-08-27T19:37:03.124Z,100100.17
2022-08-27T19:39:37.145Z,100098.92
2022-08-27T19:42:08.869Z,100098.50
2022-08-27T19:44:40.296Z,100098.73
2022-08-27T19:47:13.750Z,100100.32
2022-08-27T19:49:47.991Z,100099.44
2022-08-27T19:52:18.892Z,100100.35
2022-08-27T19:55:12.537Z,100096.13
2022-08-27T19:57:41.757Z,100097.64
2022-08-27T20:00:15.893Z,100096.42
2022-08-27T20:02:48.054Z,100096.68
2022-08-27T20:05:23.244Z,100096.91
2022-08-27T20:07:55.004Z,100100.56
2022-08-27T20:10:31.786Z,100101.55
2022-08-27T20:13:07.990Z,100101.39
2022-08-27T20:15:39.255Z,100101.48
2022-08-27T20:18:12.996Z,100100.52
2022-08-27T20:20:43.845Z,100106.73
2022-08-27T20:23:14.713Z,100102.08
2022-08-27T20:25:45.694Z,100101.78
2022-08-27T20:28:38.281Z,100100.00
2022-08-27T20:31:11.116Z,100099.67
2022-08-27T20:33:42.862Z,100099.54
2022-08-27T20:36:14.898Z,100101.75
2022-08-27T20:38:44.030Z,100096.06
2022-08-27T20:41:14.806Z,100094.80
2022-08-27T20:43:45.638Z,100095.70
2022-08-27T20:46:17.238Z,100103.09
2022-08-27T20:48:48.143Z,100100.63
2022-08-27T20:51:19.599Z,100104.05
2022-08-27T20:53:50.310Z,100102.37
2022-08-27T20:56:21.471Z,100102.15
2022-08-27T20:59:09.919Z,100098.02
2022-08-27T21:01:41.101Z,100103.54
2022-08-27T21:04:12.042Z,100098.54
2022-08-27T21:06:43.144Z,100099.08
2022-08-27T21:09:13.830Z,100098.86
2022-08-27T21:11:44.669Z,100099.48
2022-08-27T21:14:15.564Z,100101.64
2022-08-27T21:16:46.764Z,100100.40
2022-08-27T21:19:17.864Z,100098.56
2022-08-27T21:21:48.603Z,100097.64
2022-08-27T21:24:19.883Z,100098.82
2022-08-27T21:26:51.205Z,100098.01
2022-08-27T21:29:22.799Z,100101.94
2022-08-27T21:31:53.598Z,100102.11
2022-08-27T21:34:24.465Z,100101.20
2022-08-27T21:36:55.183Z,100103.85
2022-08-27T21:39:25.997Z,100106.53
2022-08-27T21:41:56.770Z,100102.40
2022-08-27T21:44:28.157Z,100100.78
2022-08-27T21:47:00.734Z,100102.59
2022-08-27T21:49:34.279Z,100100.10
2022-08-27T21:52:07.312Z,100102.13
2022-08-27T21:54:39.929Z,100100.95
2022-08-27T21:57:14.966Z,100097.31
2022-08-27T21:59:49.464Z,100103.41
2022-08-27T22:02:39.163Z,100102.88
2022-08-27T22:05:12.206Z,100107.27
2022-08-27T22:07:41.495Z,100102.49
2022-08-27T22:10:12.570Z,100106.09
2022-08-27T22:12:43.720Z,100107.63
2022-08-27T22:15:15.133Z,100105.55
2022-08-27T22:17:50.740Z,100108.23
2022-08-27T22:20:23.081Z,100105.05
2022-08-27T22:22:53.919Z,100110.17
2022-08-27T22:25:24.727Z,100105.29
2022-08-27T22:27:58.754Z,100109.02
2022-08-27T22:30:29.909Z,100104.66
2022-08-27T22:33:00.794Z,100108.19
2022-08-27T22:35:32.123Z,100104.34
2022-08-27T22:38:02.961Z,100100.23
2022-08-27T22:40:35.589Z,100100.49
2022-08-27T22:43:08.447Z,100100.02
2022-08-27T22:45:39.202Z,100100.75
2022-08-27T22:48:09.868Z,100101.46
2022-08-27T22:50:40.542Z,100105.35
2022-08-27T22:53:12.133Z,100104.82
2022-08-27T22:55:46.756Z,100107.54
2022-08-27T22:58:24.344Z,100105.48
2022-08-27T23:00:55.792Z,100103.98
2022-08-27T23:03:26.618Z,100109.00
2022-08-27T23:05:57.711Z,100112.24
2022-08-27T23:08:28.539Z,100107.68
2022-08-27T23:10:59.271Z,100106.96
2022-08-27T23:13:31.532Z,100109.16
2022-08-27T23:16:03.237Z,100111.83
2022-08-27T23:18:34.561Z,100108.96
2022-08-27T23:21:06.733Z,100112.54
2022-08-27T23:23:38.528Z,100116.52
2022-08-27T23:26:26.956Z,100114.05
2022-08-27T23:28:57.644Z,100114.79
2022-08-27T23:31:28.486Z,100115.08
2022-08-27T23:33:59.980Z,100118.54
2022-08-27T23:36:30.693Z,100120.83
2022-08-27T23:39:01.285Z,100123.00
2022-08-27T23:41:32.195Z,100123.18
2022-08-27T23:44:03.029Z,100129.35
2022-08-27T23:46:33.841Z,100125.55
2022-08-27T23:49:04.747Z,100121.89
2022-08-27T23:51:35.465Z,100125.70
2022-08-27T23:54:06.404Z,100129.67
2022-08-27T23:56:37.130Z,100125.17
2022-08-27T23:59:08.100Z,100130.58
